sensor_id;sensor_type;location;lat;lon;timestamp;temperature;humidity
8662;DHT22;29684;47.722;9.388;2024-02-04T00:01:03;4.10;99.90
8662;DHT22;29684;47.722;9.388;2024-02-04T00:03:48;4.10;99.90
8662;DHT22;29684;47.722;9.388;2024-02-04T00:06:32;4.00;99.90
8662;DHT22;29684;47.722;9.388;2024-02-04T00:09:16;4.00;99.90
8662;DHT22;29684;47.722;9.388;2024-02-04T00:12:01;4.10;99.90
8662;DHT22;29684;47.722;9.388;2024-02-04T00:14:47;4.10;99.90
8662;DHT22;29684;47.722;9.388;2024-02-04T00:17:33;4.10;99.90
8662;DHT22;29684;47.722;9.388;2024-02-04T00:20:18;4.00;99.90
8662;DHT22;29684;47.722;9.388;2024-02-04T00:23:02;4.00;99.90
8662;DHT22;29684;47.722;9.388;2024-02-04T00:25:46;4.00;99.90
8662;DHT22;29684;47.722;9.388;2024-02-04T00:28:30;4.00;99.90
8662;DHT22;29684;47.722;9.388;2024-02-04T00:31:14;3.90;99.90
8662;DHT22;29684;47.722;9.388;2024-02-04T00:33:58;3.90;99.90
8662;DHT22;29684;47.722;9.388;2024-02-04T00:36:42;3.80;99.90
8662;DHT22;29684;47.722;9.388;2024-02-04T00:39:26;3.70;99.90
8662;DHT22;29684;47.722;9.388;2024-02-04T00:42:11;3.70;99.90
8662;DHT22;29684;47.722;9.388;2024-02-04T00:44:55;3.60;99.90
8662;DHT22;29684;47.722;9.388;2024-02-04T00:47:39;3.70;99.90
8662;DHT22;29684;47.722;9.388;2024-02-04T00:50:23;3.50;99.90
8662;DHT22;29684;47.722;9.388;2024-02-04T00:53:07;3.30;99.90
8662;DHT22;29684;47.722;9.388;2024-02-04T00:55:51;3.10;99.90
8662;DHT22;29684;47.722;9.388;2024-02-04T00:58:35;3.00;99.90
8662;DHT22;29684;47.722;9.388;2024-02-04T01:01:20;3.00;99.90
8662;DHT22;29684;47.722;9.388;2024-02-04T01:04:04;3.00;99.90
8662;DHT22;29684;47.722;9.388;2024-02-04T01:06:48;2.90;99.90
8662;DHT22;29684;47.722;9.388;2024-02-04T01:09:33;2.90;99.90
8662;DHT22;29684;47.722;9.388;2024-02-04T01:12:18;2.80;99.90
8662;DHT22;29684;47.722;9.388;2024-02-04T01:15:02;2.70;99.90
8662;DHT22;29684;47.722;9.388;2024-02-04T01:17:49;2.70;99.90
8662;DHT22;29684;47.722;9.388;2024-02-04T01:20:33;2.70;99.90
8662;DHT22;29684;47.722;9.388;2024-02-04T01:23:17;2.70;99.90
8662;DHT22;29684;47.722;9.388;2024-02-04T01:26:02;2.60;99.90
8662;DHT22;29684;47.722;9.388;2024-02-04T01:28:46;2.60;99.90
8662;DHT22;29684;47.722;9.388;2024-02-04T01:31:30;2.60;99.90
8662;DHT22;29684;47.722;9.388;2024-02-04T01:34:15;2.60;99.90
8662;DHT22;29684;47.722;9.388;2024-02-04T01:36:59;2.70;99.90
8662;DHT22;29684;47.722;9.388;2024-02-04T01:39:43;2.80;99.90
8662;DHT22;29684;47.722;9.388;2024-02-04T01:42:27;2.90;99.90
8662;DHT22;29684;47.722;9.388;2024-02-04T01:45:11;2.90;99.90
8662;DHT22;29684;47.722;9.388;2024-02-04T01:47:56;3.00;99.90
8662;DHT22;29684;47.722;9.388;2024-02-04T01:50:40;3.10;99.90
8662;DHT22;29684;47.722;9.388;2024-02-04T01:53:26;3.20;99.90
8662;DHT22;29684;47.722;9.388;2024-02-04T01:56:10;3.20;99.90
8662;DHT22;29684;47.722;9.388;2024-02-04T01:58:55;3.20;99.90
8662;DHT22;29684;47.722;9.388;2024-02-04T02:01:39;3.20;99.90
8662;DHT22;29684;47.722;9.388;2024-02-04T02:04:23;3.30;99.90
8662;DHT22;29684;47.722;9.388;2024-02-04T02:07:09;3.30;99.90
8662;DHT22;29684;47.722;9.388;2024-02-04T02:09:54;3.30;99.90
8662;DHT22;29684;47.722;9.388;2024-02-04T02:12:43;3.40;99.90
8662;DHT22;29684;47.722;9.388;2024-02-04T02:15:35;3.40;99.90
8662;DHT22;29684;47.722;9.388;2024-02-04T02:18:27;3.60;99.90
8662;DHT22;29684;47.722;9.388;2024-02-04T02:24:38;3.70;99.90
8662;DHT22;29684;47.722;9.388;2024-02-04T02:27:26;3.70;99.90
8662;DHT22;29684;47.722;9.388;2024-02-04T02:30:10;5.50;99.90
8662;DHT22;29684;47.722;9.388;2024-02-04T02:32:55;3.60;99.90
8662;DHT22;29684;47.722;9.388;2024-02-04T02:35:40;3.60;99.90
8662;DHT22;29684;47.722;9.388;2024-02-04T02:38:43;3.60;99.90
8662;DHT22;29684;47.722;9.388;2024-02-04T02:41:30;3.70;99.90
8662;DHT22;29684;47.722;9.388;2024-02-04T02:44:16;3.80;99.90
8662;DHT22;29684;47.722;9.388;2024-02-04T02:47:02;3.80;99.90
8662;DHT22;29684;47.722;9.388;2024-02-04T02:49:46;3.80;99.90
8662;DHT22;29684;47.722;9.388;2024-02-04T02:52:33;3.90;99.90
8662;DHT22;29684;47.722;9.388;2024-02-04T02:55:17;3.80;99.90
8662;DHT22;29684;47.722;9.388;2024-02-04T02:58:01;3.80;99.90
8662;DHT22;29684;47.722;9.388;2024-02-04T03:00:46;3.90;99.90
8662;DHT22;29684;47.722;9.388;2024-02-04T03:03:30;3.80;99.90
8662;DHT22;29684;47.722;9.388;2024-02-04T03:06:14;3.80;99.90
8662;DHT22;29684;47.722;9.388;2024-02-04T03:08:58;3.80;99.90
8662;DHT22;29684;47.722;9.388;2024-02-04T03:11:42;3.80;99.90
8662;DHT22;29684;47.722;9.388;2024-02-04T03:14:26;3.90;99.90
8662;DHT22;29684;47.722;9.388;2024-02-04T03:17:11;3.90;99.90
8662;DHT22;29684;47.722;9.388;2024-02-04T03:19:56;3.80;99.90
8662;DHT22;29684;47.722;9.388;2024-02-04T03:22:40;3.80;99.90
8662;DHT22;29684;47.722;9.388;2024-02-04T03:25:24;3.80;99.90
8662;DHT22;29684;47.722;9.388;2024-02-04T03:28:10;3.90;99.90
8662;DHT22;29684;47.722;9.388;2024-02-04T03:30:54;3.90;99.90
8662;DHT22;29684;47.722;9.388;2024-02-04T03:33:39;4.00;99.90
8662;DHT22;29684;47.722;9.388;2024-02-04T03:36:24;3.90;99.90
8662;DHT22;29684;47.722;9.388;2024-02-04T03:39:08;3.90;99.90
8662;DHT22;29684;47.722;9.388;2024-02-04T03:41:52;3.90;99.90
8662;DHT22;29684;47.722;9.388;2024-02-04T03:44:37;3.90;99.90
8662;DHT22;29684;47.722;9.388;2024-02-04T03:47:21;3.90;99.90
8662;DHT22;29684;47.722;9.388;2024-02-04T03:50:05;4.00;99.90
8662;DHT22;29684;47.722;9.388;2024-02-04T03:52:50;4.00;99.90
8662;DHT22;29684;47.722;9.388;2024-02-04T03:55:34;4.00;99.90
8662;DHT22;29684;47.722;9.388;2024-02-04T03:58:20;4.10;99.90
8662;DHT22;29684;47.722;9.388;2024-02-04T04:01:04;4.10;99.90
8662;DHT22;29684;47.722;9.388;2024-02-04T04:03:49;4.10;99.90
8662;DHT22;29684;47.722;9.388;2024-02-04T04:06:33;4.10;99.90
8662;DHT22;29684;47.722;9.388;2024-02-04T04:09:17;4.10;99.90
8662;DHT22;29684;47.722;9.388;2024-02-04T04:12:01;4.10;99.90
8662;DHT22;29684;47.722;9.388;2024-02-04T04:14:45;5.60;99.90
8662;DHT22;29684;47.722;9.388;2024-02-04T04:17:29;4.20;99.90
8662;DHT22;29684;47.722;9.388;2024-02-04T04:20:13;4.60;99.90
8662;DHT22;29684;47.722;9.388;2024-02-04T04:22:57;4.20;99.90
8662;DHT22;29684;47.722;9.388;2024-02-04T04:25:41;5.30;99.90
8662;DHT22;29684;47.722;9.388;2024-02-04T04:28:25;4.30;99.90
8662;DHT22;29684;47.722;9.388;2024-02-04T04:31:09;4.20;99.90
8662;DHT22;29684;47.722;9.388;2024-02-04T04:33:54;4.20;99.90
8662;DHT22;29684;47.722;9.388;2024-02-04T04:36:38;4.20;99.90
8662;DHT22;29684;47.722;9.388;2024-02-04T04:39:22;4.20;99.90
8662;DHT22;29684;47.722;9.388;2024-02-04T04:42:06;4.20;99.90
8662;DHT22;29684;47.722;9.388;2024-02-04T04:44:50;4.20;99.90
8662;DHT22;29684;47.722;9.388;2024-02-04T04:47:34;4.20;99.90
8662;DHT22;29684;47.722;9.388;2024-02-04T04:50:19;4.20;99.90
8662;DHT22;29684;47.722;9.388;2024-02-04T04:53:03;4.20;99.90
8662;DHT22;29684;47.722;9.388;2024-02-04T04:55:47;4.20;99.90
8662;DHT22;29684;47.722;9.388;2024-02-04T04:58:32;4.30;99.90
8662;DHT22;29684;47.722;9.388;2024-02-04T05:01:16;4.30;99.90
8662;DHT22;29684;47.722;9.388;2024-02-04T05:04:00;5.70;99.90
8662;DHT22;29684;47.722;9.388;2024-02-04T05:06:45;4.20;99.90
8662;DHT22;29684;47.722;9.388;2024-02-04T05:09:29;4.30;99.90
8662;DHT22;29684;47.722;9.388;2024-02-04T05:12:13;4.30;99.90
8662;DHT22;29684;47.722;9.388;2024-02-04T05:14:57;4.30;99.90
8662;DHT22;29684;47.722;9.388;2024-02-04T05:17:41;4.40;99.90
8662;DHT22;29684;47.722;9.388;2024-02-04T05:20:25;4.40;99.90
8662;DHT22;29684;47.722;9.388;2024-02-04T05:23:10;4.50;99.90
8662;DHT22;29684;47.722;9.388;2024-02-04T05:25:54;4.50;99.90
8662;DHT22;29684;47.722;9.388;2024-02-04T05:28:38;4.40;99.90
8662;DHT22;29684;47.722;9.388;2024-02-04T05:31:22;4.40;99.90
8662;DHT22;29684;47.722;9.388;2024-02-04T05:34:06;4.40;99.90
8662;DHT22;29684;47.722;9.388;2024-02-04T05:36:51;4.40;99.90
8662;DHT22;29684;47.722;9.388;2024-02-04T05:39:35;4.40;99.90
8662;DHT22;29684;47.722;9.388;2024-02-04T05:42:19;4.40;99.90
8662;DHT22;29684;47.722;9.388;2024-02-04T05:45:04;4.30;99.90
8662;DHT22;29684;47.722;9.388;2024-02-04T05:47:49;4.40;99.90
8662;DHT22;29684;47.722;9.388;2024-02-04T05:50:33;4.80;99.90
8662;DHT22;29684;47.722;9.388;2024-02-04T05:53:17;4.40;99.90
8662;DHT22;29684;47.722;9.388;2024-02-04T05:56:01;4.40;99.90
8662;DHT22;29684;47.722;9.388;2024-02-04T05:58:47;5.80;99.90
8662;DHT22;29684;47.722;9.388;2024-02-04T06:01:31;4.40;99.90
8662;DHT22;29684;47.722;9.388;2024-02-04T06:04:17;6.20;99.90
8662;DHT22;29684;47.722;9.388;2024-02-04T06:07:01;4.30;99.90
8662;DHT22;29684;47.722;9.388;2024-02-04T06:09:45;4.30;99.90
8662;DHT22;29684;47.722;9.388;2024-02-04T06:12:32;6.00;99.90
8662;DHT22;29684;47.722;9.388;2024-02-04T06:15:16;4.30;99.90
8662;DHT22;29684;47.722;9.388;2024-02-04T06:18:01;4.20;99.90
8662;DHT22;29684;47.722;9.388;2024-02-04T06:20:45;4.20;99.90
8662;DHT22;29684;47.722;9.388;2024-02-04T06:23:29;4.20;99.90
8662;DHT22;29684;47.722;9.388;2024-02-04T06:26:13;4.10;99.90
8662;DHT22;29684;47.722;9.388;2024-02-04T06:28:57;4.10;99.90
8662;DHT22;29684;47.722;9.388;2024-02-04T06:31:44;5.00;99.90
8662;DHT22;29684;47.722;9.388;2024-02-04T06:34:29;4.10;99.90
8662;DHT22;29684;47.722;9.388;2024-02-04T06:37:13;4.10;99.90
8662;DHT22;29684;47.722;9.388;2024-02-04T06:39:57;4.20;99.90
8662;DHT22;29684;47.722;9.388;2024-02-04T06:42:41;4.20;99.90
8662;DHT22;29684;47.722;9.388;2024-02-04T06:45:25;4.20;99.90
8662;DHT22;29684;47.722;9.388;2024-02-04T06:48:10;4.20;99.90
8662;DHT22;29684;47.722;9.388;2024-02-04T06:50:54;4.30;99.90
8662;DHT22;29684;47.722;9.388;2024-02-04T06:53:38;4.30;99.90
8662;DHT22;29684;47.722;9.388;2024-02-04T06:56:22;4.40;99.90
8662;DHT22;29684;47.722;9.388;2024-02-04T06:59:06;4.30;99.90
8662;DHT22;29684;47.722;9.388;2024-02-04T07:01:51;4.40;99.90
8662;DHT22;29684;47.722;9.388;2024-02-04T07:04:37;4.40;99.90
8662;DHT22;29684;47.722;9.388;2024-02-04T07:07:21;5.70;99.90
8662;DHT22;29684;47.722;9.388;2024-02-04T07:10:05;4.50;99.90
8662;DHT22;29684;47.722;9.388;2024-02-04T07:12:51;4.50;99.90
8662;DHT22;29684;47.722;9.388;2024-02-04T07:15:35;4.60;99.90
8662;DHT22;29684;47.722;9.388;2024-02-04T07:18:19;4.60;99.90
8662;DHT22;29684;47.722;9.388;2024-02-04T07:21:05;4.60;99.90
8662;DHT22;29684;47.722;9.388;2024-02-04T07:23:49;4.60;99.90
8662;DHT22;29684;47.722;9.388;2024-02-04T07:26:33;4.60;99.90
8662;DHT22;29684;47.722;9.388;2024-02-04T07:29:17;4.70;99.90
8662;DHT22;29684;47.722;9.388;2024-02-04T07:32:02;4.60;99.90
8662;DHT22;29684;47.722;9.388;2024-02-04T07:34:46;4.70;99.90
8662;DHT22;29684;47.722;9.388;2024-02-04T07:37:30;3.10;99.90
8662;DHT22;29684;47.722;9.388;2024-02-04T07:40:14;4.80;99.90
8662;DHT22;29684;47.722;9.388;2024-02-04T07:42:59;4.80;99.90
8662;DHT22;29684;47.722;9.388;2024-02-04T07:45:43;4.90;99.90
8662;DHT22;29684;47.722;9.388;2024-02-04T07:48:27;4.90;99.90
8662;DHT22;29684;47.722;9.388;2024-02-04T07:51:12;4.90;99.90
8662;DHT22;29684;47.722;9.388;2024-02-04T07:53:56;6.60;99.90
8662;DHT22;29684;47.722;9.388;2024-02-04T07:56:41;6.20;99.90
8662;DHT22;29684;47.722;9.388;2024-02-04T07:59:25;4.90;99.90
8662;DHT22;29684;47.722;9.388;2024-02-04T08:02:09;4.90;99.90
8662;DHT22;29684;47.722;9.388;2024-02-04T08:04:53;4.90;99.90
8662;DHT22;29684;47.722;9.388;2024-02-04T08:07:37;5.00;99.90
8662;DHT22;29684;47.722;9.388;2024-02-04T08:10:22;5.00;99.90
8662;DHT22;29684;47.722;9.388;2024-02-04T08:13:06;5.10;99.90
8662;DHT22;29684;47.722;9.388;2024-02-04T08:15:50;5.10;99.90
8662;DHT22;29684;47.722;9.388;2024-02-04T08:18:34;6.50;99.90
8662;DHT22;29684;47.722;9.388;2024-02-04T08:21:18;5.10;99.90
8662;DHT22;29684;47.722;9.388;2024-02-04T08:24:03;5.20;99.90
8662;DHT22;29684;47.722;9.388;2024-02-04T08:26:47;5.30;99.90
8662;DHT22;29684;47.722;9.388;2024-02-04T08:29:32;5.50;99.90
8662;DHT22;29684;47.722;9.388;2024-02-04T08:32:16;5.60;99.90
8662;DHT22;29684;47.722;9.388;2024-02-04T08:35:00;5.60;99.90
8662;DHT22;29684;47.722;9.388;2024-02-04T08:37:44;4.60;99.90
8662;DHT22;29684;47.722;9.388;2024-02-04T08:40:28;6.90;99.90
8662;DHT22;29684;47.722;9.388;2024-02-04T08:43:12;5.60;99.90
8662;DHT22;29684;47.722;9.388;2024-02-04T08:45:56;5.80;99.90
8662;DHT22;29684;47.722;9.388;2024-02-04T08:48:41;5.80;99.90
8662;DHT22;29684;47.722;9.388;2024-02-04T08:51:26;5.70;99.90
8662;DHT22;29684;47.722;9.388;2024-02-04T08:54:11;5.70;99.90
8662;DHT22;29684;47.722;9.388;2024-02-04T08:56:55;5.60;99.90
8662;DHT22;29684;47.722;9.388;2024-02-04T08:59:39;5.70;99.90
8662;DHT22;29684;47.722;9.388;2024-02-04T09:02:23;5.80;99.90
8662;DHT22;29684;47.722;9.388;2024-02-04T09:05:08;5.80;99.90
8662;DHT22;29684;47.722;9.388;2024-02-04T09:07:52;6.20;99.90
8662;DHT22;29684;47.722;9.388;2024-02-04T09:10:39;5.90;99.90
8662;DHT22;29684;47.722;9.388;2024-02-04T09:13:22;6.40;99.90
8662;DHT22;29684;47.722;9.388;2024-02-04T09:16:07;6.10;99.90
8662;DHT22;29684;47.722;9.388;2024-02-04T09:18:51;7.80;99.90
8662;DHT22;29684;47.722;9.388;2024-02-04T09:21:35;6.00;99.90
8662;DHT22;29684;47.722;9.388;2024-02-04T09:24:19;5.90;99.90
8662;DHT22;29684;47.722;9.388;2024-02-04T09:27:04;6.00;99.90
8662;DHT22;29684;47.722;9.388;2024-02-04T09:29:48;5.90;99.90
8662;DHT22;29684;47.722;9.388;2024-02-04T09:32:32;5.90;99.90
8662;DHT22;29684;47.722;9.388;2024-02-04T09:35:18;5.80;99.90
8662;DHT22;29684;47.722;9.388;2024-02-04T09:38:02;5.80;99.90
8662;DHT22;29684;47.722;9.388;2024-02-04T09:40:46;5.70;99.90
8662;DHT22;29684;47.722;9.388;2024-02-04T09:43:32;5.80;99.90
8662;DHT22;29684;47.722;9.388;2024-02-04T09:46:17;5.90;99.90
8662;DHT22;29684;47.722;9.388;2024-02-04T09:49:02;6.00;99.90
8662;DHT22;29684;47.722;9.388;2024-02-04T09:51:47;7.20;99.90
8662;DHT22;29684;47.722;9.388;2024-02-04T09:54:32;6.20;99.90
8662;DHT22;29684;47.722;9.388;2024-02-04T09:57:17;6.30;99.90
8662;DHT22;29684;47.722;9.388;2024-02-04T10:00:05;6.20;99.90
8662;DHT22;29684;47.722;9.388;2024-02-04T10:02:50;6.30;99.90
8662;DHT22;29684;47.722;9.388;2024-02-04T10:05:34;6.40;99.90
8662;DHT22;29684;47.722;9.388;2024-02-04T10:08:18;7.80;99.90
8662;DHT22;29684;47.722;9.388;2024-02-04T10:11:03;6.60;99.90
8662;DHT22;29684;47.722;9.388;2024-02-04T10:13:51;6.50;99.90
8662;DHT22;29684;47.722;9.388;2024-02-04T10:16:36;7.00;99.90
8662;DHT22;29684;47.722;9.388;2024-02-04T10:19:24;7.40;99.90
8662;DHT22;29684;47.722;9.388;2024-02-04T10:22:10;8.00;99.90
8662;DHT22;29684;47.722;9.388;2024-02-04T10:25:04;6.90;99.90
8662;DHT22;29684;47.722;9.388;2024-02-04T10:27:49;7.50;99.90
8662;DHT22;29684;47.722;9.388;2024-02-04T10:30:34;6.60;99.90
8662;DHT22;29684;47.722;9.388;2024-02-04T10:33:21;8.20;99.90
8662;DHT22;29684;47.722;9.388;2024-02-04T10:36:06;6.60;99.90
8662;DHT22;29684;47.722;9.388;2024-02-04T10:38:50;6.40;99.90
8662;DHT22;29684;47.722;9.388;2024-02-04T10:41:40;6.40;99.90
8662;DHT22;29684;47.722;9.388;2024-02-04T10:44:28;8.00;99.90
8662;DHT22;29684;47.722;9.388;2024-02-04T10:47:17;7.00;99.90
8662;DHT22;29684;47.722;9.388;2024-02-04T10:50:06;6.90;99.90
8662;DHT22;29684;47.722;9.388;2024-02-04T10:52:51;7.40;99.90
8662;DHT22;29684;47.722;9.388;2024-02-04T10:55:41;7.50;99.90
8662;DHT22;29684;47.722;9.388;2024-02-04T10:58:27;7.30;99.90
8662;DHT22;29684;47.722;9.388;2024-02-04T11:01:11;7.20;99.90
8662;DHT22;29684;47.722;9.388;2024-02-04T11:03:57;8.60;99.90
8662;DHT22;29684;47.722;9.388;2024-02-04T11:06:43;7.60;99.90
8662;DHT22;29684;47.722;9.388;2024-02-04T11:09:28;8.00;99.90
8662;DHT22;29684;47.722;9.388;2024-02-04T11:12:14;9.50;99.90
8662;DHT22;29684;47.722;9.388;2024-02-04T11:15:03;8.80;99.90
8662;DHT22;29684;47.722;9.388;2024-02-04T11:24:37;9.90;99.90
8662;DHT22;29684;47.722;9.388;2024-02-04T11:26:55;10.80;99.90
8662;DHT22;29684;47.722;9.388;2024-02-04T11:29:40;10.70;99.90
8662;DHT22;29684;47.722;9.388;2024-02-04T11:32:28;10.30;99.90
8662;DHT22;29684;47.722;9.388;2024-02-04T11:35:12;10.50;99.90
8662;DHT22;29684;47.722;9.388;2024-02-04T11:37:56;10.80;99.90
8662;DHT22;29684;47.722;9.388;2024-02-04T11:40:41;10.90;99.90
8662;DHT22;29684;47.722;9.388;2024-02-04T11:43:25;11.10;99.90
8662;DHT22;29684;47.722;9.388;2024-02-04T11:46:16;11.10;99.90
8662;DHT22;29684;47.722;9.388;2024-02-04T11:49:02;11.50;99.90
8662;DHT22;29684;47.722;9.388;2024-02-04T11:51:46;11.40;99.90
8662;DHT22;29684;47.722;9.388;2024-02-04T11:54:34;11.90;99.90
8662;DHT22;29684;47.722;9.388;2024-02-04T11:57:18;11.50;99.90
8662;DHT22;29684;47.722;9.388;2024-02-04T12:00:04;11.50;99.90
8662;DHT22;29684;47.722;9.388;2024-02-04T12:03:00;11.40;99.90
8662;DHT22;29684;47.722;9.388;2024-02-04T12:05:45;11.90;99.90
8662;DHT22;29684;47.722;9.388;2024-02-04T12:08:32;11.90;99.90
8662;DHT22;29684;47.722;9.388;2024-02-04T12:11:17;11.70;99.90
8662;DHT22;29684;47.722;9.388;2024-02-04T12:14:03;11.60;99.90
8662;DHT22;29684;47.722;9.388;2024-02-04T12:16:49;12.10;99.90
8662;DHT22;29684;47.722;9.388;2024-02-04T12:19:33;12.90;99.90
8662;DHT22;29684;47.722;9.388;2024-02-04T12:22:18;12.10;99.90
8662;DHT22;29684;47.722;9.388;2024-02-04T12:25:02;11.60;99.90
8662;DHT22;29684;47.722;9.388;2024-02-04T12:27:47;11.60;99.90
8662;DHT22;29684;47.722;9.388;2024-02-04T12:30:33;12.00;99.90
8662;DHT22;29684;47.722;9.388;2024-02-04T12:33:18;11.70;99.90
8662;DHT22;29684;47.722;9.388;2024-02-04T12:36:02;11.80;99.90
8662;DHT22;29684;47.722;9.388;2024-02-04T12:38:57;12.30;99.90
8662;DHT22;29684;47.722;9.388;2024-02-04T12:41:42;12.40;99.90
8662;DHT22;29684;47.722;9.388;2024-02-04T12:44:26;11.90;99.90
8662;DHT22;29684;47.722;9.388;2024-02-04T12:47:10;11.70;99.90
8662;DHT22;29684;47.722;9.388;2024-02-04T12:49:58;12.10;99.90
8662;DHT22;29684;47.722;9.388;2024-02-04T12:52:42;12.00;99.90
8662;DHT22;29684;47.722;9.388;2024-02-04T12:55:27;12.00;99.90
8662;DHT22;29684;47.722;9.388;2024-02-04T12:58:17;11.80;99.90
8662;DHT22;29684;47.722;9.388;2024-02-04T13:01:02;11.20;99.90
8662;DHT22;29684;47.722;9.388;2024-02-04T13:03:49;11.40;99.90
8662;DHT22;29684;47.722;9.388;2024-02-04T13:06:38;11.50;99.90
8662;DHT22;29684;47.722;9.388;2024-02-04T13:09:23;11.20;99.90
8662;DHT22;29684;47.722;9.388;2024-02-04T13:12:10;11.50;99.90
8662;DHT22;29684;47.722;9.388;2024-02-04T13:14:54;12.00;99.90
8662;DHT22;29684;47.722;9.388;2024-02-04T13:17:39;11.40;99.90
8662;DHT22;29684;47.722;9.388;2024-02-04T13:20:23;11.30;99.90
8662;DHT22;29684;47.722;9.388;2024-02-04T13:23:08;11.70;99.90
8662;DHT22;29684;47.722;9.388;2024-02-04T13:25:52;11.60;99.90
8662;DHT22;29684;47.722;9.388;2024-02-04T13:28:37;11.10;99.90
8662;DHT22;29684;47.722;9.388;2024-02-04T13:31:21;11.00;99.90
8662;DHT22;29684;47.722;9.388;2024-02-04T13:34:05;11.50;99.90
8662;DHT22;29684;47.722;9.388;2024-02-04T13:36:50;10.80;99.90
8662;DHT22;29684;47.722;9.388;2024-02-04T13:39:35;10.80;99.90
8662;DHT22;29684;47.722;9.388;2024-02-04T13:42:19;11.10;99.90
8662;DHT22;29684;47.722;9.388;2024-02-04T13:45:04;11.60;99.90
8662;DHT22;29684;47.722;9.388;2024-02-04T13:47:49;11.70;99.90
8662;DHT22;29684;47.722;9.388;2024-02-04T13:50:33;11.90;99.90
8662;DHT22;29684;47.722;9.388;2024-02-04T13:53:17;12.20;99.90
8662;DHT22;29684;47.722;9.388;2024-02-04T13:56:02;12.60;99.90
8662;DHT22;29684;47.722;9.388;2024-02-04T13:58:46;12.50;99.90
8662;DHT22;29684;47.722;9.388;2024-02-04T14:01:30;12.60;99.90
8662;DHT22;29684;47.722;9.388;2024-02-04T14:04:14;12.50;99.90
8662;DHT22;29684;47.722;9.388;2024-02-04T14:06:58;13.70;99.90
8662;DHT22;29684;47.722;9.388;2024-02-04T14:09:43;12.90;99.90
8662;DHT22;29684;47.722;9.388;2024-02-04T14:12:27;12.30;99.90
8662;DHT22;29684;47.722;9.388;2024-02-04T14:15:13;11.90;99.90
8662;DHT22;29684;47.722;9.388;2024-02-04T14:17:59;12.20;99.90
8662;DHT22;29684;47.722;9.388;2024-02-04T14:20:43;12.30;99.90
8662;DHT22;29684;47.722;9.388;2024-02-04T14:23:27;12.30;99.90
8662;DHT22;29684;47.722;9.388;2024-02-04T14:26:20;12.00;99.90
8662;DHT22;29684;47.722;9.388;2024-02-04T14:29:05;11.90;99.90
8662;DHT22;29684;47.722;9.388;2024-02-04T14:31:49;11.60;99.90
8662;DHT22;29684;47.722;9.388;2024-02-04T14:34:34;11.30;99.90
8662;DHT22;29684;47.722;9.388;2024-02-04T14:37:19;11.20;99.90
8662;DHT22;29684;47.722;9.388;2024-02-04T14:40:03;11.10;99.90
8662;DHT22;29684;47.722;9.388;2024-02-04T14:42:48;11.00;99.90
8662;DHT22;29684;47.722;9.388;2024-02-04T14:45:32;10.70;99.90
8662;DHT22;29684;47.722;9.388;2024-02-04T14:48:16;10.60;99.90
8662;DHT22;29684;47.722;9.388;2024-02-04T14:51:00;10.30;99.90
8662;DHT22;29684;47.722;9.388;2024-02-04T14:53:44;10.10;99.90
8662;DHT22;29684;47.722;9.388;2024-02-04T14:56:28;10.00;99.90
8662;DHT22;29684;47.722;9.388;2024-02-04T14:59:14;11.00;99.90
8662;DHT22;29684;47.722;9.388;2024-02-04T15:01:58;9.90;99.90
8662;DHT22;29684;47.722;9.388;2024-02-04T15:04:42;9.70;99.90
8662;DHT22;29684;47.722;9.388;2024-02-04T15:07:26;9.40;99.90
8662;DHT22;29684;47.722;9.388;2024-02-04T15:10:10;9.10;99.90
8662;DHT22;29684;47.722;9.388;2024-02-04T15:12:54;8.90;99.90
8662;DHT22;29684;47.722;9.388;2024-02-04T15:15:38;8.90;99.90
8662;DHT22;29684;47.722;9.388;2024-02-04T15:18:23;9.00;99.90
8662;DHT22;29684;47.722;9.388;2024-02-04T15:21:08;8.80;99.90
8662;DHT22;29684;47.722;9.388;2024-02-04T15:23:53;8.60;99.90
8662;DHT22;29684;47.722;9.388;2024-02-04T15:26:37;8.70;99.90
8662;DHT22;29684;47.722;9.388;2024-02-04T15:29:22;8.70;99.90
8662;DHT22;29684;47.722;9.388;2024-02-04T15:32:07;8.70;99.90
8662;DHT22;29684;47.722;9.388;2024-02-04T15:34:52;8.60;99.90
8662;DHT22;29684;47.722;9.388;2024-02-04T15:37:36;8.60;99.90
8662;DHT22;29684;47.722;9.388;2024-02-04T15:40:20;8.60;99.90
8662;DHT22;29684;47.722;9.388;2024-02-04T15:43:05;8.40;99.90
8662;DHT22;29684;47.722;9.388;2024-02-04T15:45:50;9.00;99.90
8662;DHT22;29684;47.722;9.388;2024-02-04T15:48:38;8.40;99.90
8662;DHT22;29684;47.722;9.388;2024-02-04T15:51:22;8.40;99.90
8662;DHT22;29684;47.722;9.388;2024-02-04T15:54:07;8.30;99.90
8662;DHT22;29684;47.722;9.388;2024-02-04T15:56:58;8.30;99.90
8662;DHT22;29684;47.722;9.388;2024-02-04T15:59:57;9.00;99.90
8662;DHT22;29684;47.722;9.388;2024-02-04T16:02:45;8.30;99.90
8662;DHT22;29684;47.722;9.388;2024-02-04T16:05:29;8.30;99.90
8662;DHT22;29684;47.722;9.388;2024-02-04T16:08:14;8.30;99.90
8662;DHT22;29684;47.722;9.388;2024-02-04T16:11:04;8.20;99.90
8662;DHT22;29684;47.722;9.388;2024-02-04T16:13:50;8.10;99.90
8662;DHT22;29684;47.722;9.388;2024-02-04T16:16:35;8.10;99.90
8662;DHT22;29684;47.722;9.388;2024-02-04T16:19:21;7.30;99.90
8662;DHT22;29684;47.722;9.388;2024-02-04T16:22:06;8.10;99.90
8662;DHT22;29684;47.722;9.388;2024-02-04T16:24:52;9.80;99.90
8662;DHT22;29684;47.722;9.388;2024-02-04T16:27:37;8.00;99.90
8662;DHT22;29684;47.722;9.388;2024-02-04T16:30:21;7.90;99.90
8662;DHT22;29684;47.722;9.388;2024-02-04T16:33:05;9.40;99.90
8662;DHT22;29684;47.722;9.388;2024-02-04T16:35:49;7.80;99.90
8662;DHT22;29684;47.722;9.388;2024-02-04T16:38:33;7.80;99.90
8662;DHT22;29684;47.722;9.388;2024-02-04T16:41:18;7.70;99.90
8662;DHT22;29684;47.722;9.388;2024-02-04T16:44:03;9.00;99.90
8662;DHT22;29684;47.722;9.388;2024-02-04T16:46:47;7.70;99.90
8662;DHT22;29684;47.722;9.388;2024-02-04T16:49:32;7.60;99.90
8662;DHT22;29684;47.722;9.388;2024-02-04T16:52:16;7.50;99.90
8662;DHT22;29684;47.722;9.388;2024-02-04T16:55:01;7.50;99.90
8662;DHT22;29684;47.722;9.388;2024-02-04T16:57:45;7.50;99.90
8662;DHT22;29684;47.722;9.388;2024-02-04T17:00:29;7.40;99.90
8662;DHT22;29684;47.722;9.388;2024-02-04T17:03:13;7.40;99.90
8662;DHT22;29684;47.722;9.388;2024-02-04T17:05:58;7.30;99.90
8662;DHT22;29684;47.722;9.388;2024-02-04T17:08:43;7.30;99.90
8662;DHT22;29684;47.722;9.388;2024-02-04T17:11:28;7.30;99.90
8662;DHT22;29684;47.722;9.388;2024-02-04T17:14:13;7.20;99.90
8662;DHT22;29684;47.722;9.388;2024-02-04T17:20:09;7.20;99.90
8662;DHT22;29684;47.722;9.388;2024-02-04T17:23:07;7.10;99.90
8662;DHT22;29684;47.722;9.388;2024-02-04T17:25:58;7.10;99.90
8662;DHT22;29684;47.722;9.388;2024-02-04T17:28:44;7.00;99.90
8662;DHT22;29684;47.722;9.388;2024-02-04T17:31:28;6.90;99.90
8662;DHT22;29684;47.722;9.388;2024-02-04T17:34:13;6.90;99.90
8662;DHT22;29684;47.722;9.388;2024-02-04T17:36:57;6.90;99.90
8662;DHT22;29684;47.722;9.388;2024-02-04T17:39:43;7.20;99.90
8662;DHT22;29684;47.722;9.388;2024-02-04T17:42:27;7.00;99.90
8662;DHT22;29684;47.722;9.388;2024-02-04T17:45:12;7.00;99.90
8662;DHT22;29684;47.722;9.388;2024-02-04T17:47:57;7.00;99.90
8662;DHT22;29684;47.722;9.388;2024-02-04T17:50:41;7.00;99.90
8662;DHT22;29684;47.722;9.388;2024-02-04T17:53:25;7.10;99.90
8662;DHT22;29684;47.722;9.388;2024-02-04T17:56:17;7.00;99.90
8662;DHT22;29684;47.722;9.388;2024-02-04T17:59:01;8.30;99.90
8662;DHT22;29684;47.722;9.388;2024-02-04T18:01:46;6.80;99.90
8662;DHT22;29684;47.722;9.388;2024-02-04T18:04:30;6.80;99.90
8662;DHT22;29684;47.722;9.388;2024-02-04T18:07:14;7.90;99.90